Time;durP1;ratioP1;P1;durP2;ratioP2;P2;SDS_P1;SDS_P2;PMS_P1;PMS_P2;Temp;Humidity;BMP_temperature;BMP_pressure;BME280_temperature;BME280_humidity;BME280_pressure;Samples;Min_cycle;Max_cycle;Signal;HPM_P1;HPM_P2
2023/10/20 00:00:51;;;;;;;;;;;15.70;99.90;;;;;;4954685;29;19906;-74
2023/10/20 00:03:17;;;;;;;;;;;15.70;99.90;;;;;;4954640;29;19926;-74
2023/10/20 00:05:42;;;;;;;;;;;15.70;99.90;;;;;;4954672;29;19910;-79
2023/10/20 00:08:08;;;;;;;;;;;15.70;99.90;;;;;;4954720;29;19997;-74
2023/10/20 00:10:36;;;;;;;;;;;15.80;99.90;;;;;;4942226;29;19907;-74
2023/10/20 00:13:02;;;;;;;;;;;15.80;99.90;;;;;;4918335;29;19963;-79
2023/10/20 00:15:28;;;;;;;;;;;15.70;99.90;;;;;;4916577;29;20366;-73
2023/10/20 00:17:53;;;;;;;;;;;15.70;99.90;;;;;;4916600;29;19911;-79
2023/10/20 00:20:19;;;;;;;;;;;15.70;99.90;;;;;;4916667;29;19914;-79
2023/10/20 00:22:45;;;;;;;;;;;15.70;99.90;;;;;;4916600;29;19949;-79
2023/10/20 00:25:11;;;;;;;;;;;15.80;99.90;;;;;;4916365;29;19930;-74
2023/10/20 00:27:37;;;;;;;;;;;15.80;99.90;;;;;;4916442;29;19911;-74
2023/10/20 00:30:02;;;;;;;;;;;15.80;99.90;;;;;;4916444;29;19911;-79
2023/10/20 00:32:30;;;;;;;;;;;15.90;99.90;;;;;;4928425;29;19914;-74
2023/10/20 00:34:57;;;;;;;;;;;16.00;99.90;;;;;;4935340;29;19907;-74
2023/10/20 00:37:23;;;;;;;;;;;16.00;99.90;;;;;;4935548;29;19918;-74
2023/10/20 00:39:49;;;;;;;;;;;16.10;99.90;;;;;;4941391;29;20271;-74
2023/10/20 00:42:14;;;;;;;;;;;16.20;99.90;;;;;;4949038;29;19921;-74
2023/10/20 00:44:40;;;;;;;;;;;16.40;99.90;;;;;;4954663;29;20397;-78
2023/10/20 00:47:06;;;;;;;;;;;16.40;99.90;;;;;;4954183;29;19922;-78
2023/10/20 00:49:32;;;;;;;;;;;16.30;99.90;;;;;;4954147;29;20334;-74
2023/10/20 00:51:59;;;;;;;;;;;16.00;99.90;;;;;;4954465;29;19906;-78
2023/10/20 00:54:24;;;;;;;;;;;15.70;99.90;;;;;;4954085;29;19913;-74
2023/10/20 00:56:51;;;;;;;;;;;15.50;99.90;;;;;;4953823;29;19910;-79
2023/10/20 00:59:17;;;;;;;;;;;15.40;99.90;;;;;;4954519;29;19946;-73
2023/10/20 01:01:42;;;;;;;;;;;15.30;99.90;;;;;;4956831;28;19949;-78
2023/10/20 01:04:08;;;;;;;;;;;15.20;99.90;;;;;;4957994;29;19907;-73
2023/10/20 01:06:35;;;;;;;;;;;15.20;99.90;;;;;;4957709;29;19981;-74
2023/10/20 01:09:00;;;;;;;;;;;15.10;99.90;;;;;;4957303;29;19906;-74
2023/10/20 01:11:26;;;;;;;;;;;15.10;99.90;;;;;;4933821;29;19911;-73
2023/10/20 01:13:51;;;;;;;;;;;15.10;99.90;;;;;;4919606;29;19907;-78
2023/10/20 01:16:18;;;;;;;;;;;15.20;99.90;;;;;;4919262;29;19907;-73
2023/10/20 01:18:44;;;;;;;;;;;15.40;99.90;;;;;;4923172;29;20384;-74
2023/10/20 01:21:09;;;;;;;;;;;15.60;99.90;;;;;;4957297;29;19911;-74
2023/10/20 01:23:35;;;;;;;;;;;15.60;99.90;;;;;;4957310;29;20001;-78
2023/10/20 01:26:01;;;;;;;;;;;15.70;99.90;;;;;;4957225;29;19906;-78
2023/10/20 01:28:26;;;;;;;;;;;15.80;99.90;;;;;;4956077;29;19913;-78
2023/10/20 01:30:52;;;;;;;;;;;15.90;99.90;;;;;;4957231;29;19910;-73
2023/10/20 01:33:17;;;;;;;;;;;15.60;99.90;;;;;;4938412;29;20014;-73
2023/10/20 01:35:43;;;;;;;;;;;15.50;99.90;;;;;;4937900;29;19918;-78
2023/10/20 01:38:08;;;;;;;;;;;15.50;99.90;;;;;;4937774;29;19918;-78
2023/10/20 01:40:34;;;;;;;;;;;15.40;99.90;;;;;;4944219;29;19911;-79
2023/10/20 01:42:59;;;;;;;;;;;15.30;99.90;;;;;;4956931;29;19918;-79
2023/10/20 01:45:25;;;;;;;;;;;15.20;99.90;;;;;;4951569;29;20298;-73
2023/10/20 01:47:50;;;;;;;;;;;15.30;99.90;;;;;;4937945;29;19910;-79
2023/10/20 01:50:16;;;;;;;;;;;15.30;99.90;;;;;;4937413;29;20362;-78
2023/10/20 01:52:42;;;;;;;;;;;15.30;99.90;;;;;;4938123;29;19963;-78
2023/10/20 01:55:08;;;;;;;;;;;15.30;99.90;;;;;;4937867;29;19946;-78
2023/10/20 01:57:33;;;;;;;;;;;15.30;99.90;;;;;;4937475;29;20373;-73
2023/10/20 02:00:01;;;;;;;;;;;15.30;99.90;;;;;;4935398;29;19906;-73
2023/10/20 02:02:27;;;;;;;;;;;15.30;99.90;;;;;;4918935;29;19970;-79
2023/10/20 02:04:52;;;;;;;;;;;15.30;99.90;;;;;;4918477;29;20443;-78
2023/10/20 02:07:18;;;;;;;;;;;15.20;99.90;;;;;;4918643;29;19997;-78
2023/10/20 02:09:43;;;;;;;;;;;15.20;99.90;;;;;;4918125;29;19907;-73
2023/10/20 02:12:10;;;;;;;;;;;15.10;99.90;;;;;;4907353;29;19959;-74
2023/10/20 02:14:35;;;;;;;;;;;15.10;99.90;;;;;;4899775;29;19914;-78
2023/10/20 02:17:01;;;;;;;;;;;15.10;99.90;;;;;;4899427;29;19911;-78
2023/10/20 02:19:26;;;;;;;;;;;15.10;99.90;;;;;;4899673;29;20012;-78
2023/10/20 02:21:52;;;;;;;;;;;15.00;99.90;;;;;;4899707;29;19907;-78
2023/10/20 02:24:17;;;;;;;;;;;15.00;99.90;;;;;;4899637;29;20007;-73
2023/10/20 02:26:45;;;;;;;;;;;15.00;99.90;;;;;;4899544;29;20023;-78
2023/10/20 02:29:11;;;;;;;;;;;15.00;99.90;;;;;;4899420;29;19915;-73
2023/10/20 02:31:37;;;;;;;;;;;15.00;99.90;;;;;;4904372;29;20351;-78
2023/10/20 02:34:02;;;;;;;;;;;15.00;99.90;;;;;;4918063;29;19911;-78
2023/10/20 02:36:28;;;;;;;;;;;15.00;99.90;;;;;;4918215;29;19954;-74
2023/10/20 02:38:55;;;;;;;;;;;15.00;99.90;;;;;;4917441;29;19907;-74
2023/10/20 02:41:20;;;;;;;;;;;14.90;99.90;;;;;;4917737;29;19911;-74
2023/10/20 02:43:46;;;;;;;;;;;14.80;99.90;;;;;;4918172;29;19914;-78
2023/10/20 02:46:15;;;;;;;;;;;14.90;99.90;;;;;;4940902;29;19985;-78
2023/10/20 02:48:41;;;;;;;;;;;14.90;99.90;;;;;;4955948;29;20000;-73
2023/10/20 02:51:13;;;;;;;;;;;14.90;99.90;;;;;;4955854;29;19945;-74
2023/10/20 02:53:39;;;;;;;;;;;14.90;99.90;;;;;;4955809;29;19906;-79
2023/10/20 02:56:15;;;;;;;;;;;14.90;99.90;;;;;;4955945;29;20005;-79
2023/10/20 02:58:43;;;;;;;;;;;14.90;99.90;;;;;;4955779;29;19917;-79
2023/10/20 03:01:09;;;;;;;;;;;14.90;99.90;;;;;;4955917;29;20004;-79
2023/10/20 03:03:35;;;;;;;;;;;14.80;99.90;;;;;;4955817;29;19906;-75
2023/10/20 03:06:01;;;;;;;;;;;14.80;99.90;;;;;;4955745;29;19907;-79
2023/10/20 03:08:28;;;;;;;;;;;14.80;99.90;;;;;;4954690;29;19918;-82
2023/10/20 03:10:54;;;;;;;;;;;14.80;99.90;;;;;;4939419;29;19997;-82
2023/10/20 03:13:19;;;;;;;;;;;14.80;99.90;;;;;;4917623;29;19947;-76
2023/10/20 03:15:45;;;;;;;;;;;14.80;99.90;;;;;;4916955;29;20001;-77
2023/10/20 03:18:13;;;;;;;;;;;14.80;99.90;;;;;;4917041;29;20279;-76
2023/10/20 03:20:39;;;;;;;;;;;14.80;99.90;;;;;;4916490;29;20049;-82
2023/10/20 03:23:04;;;;;;;;;;;14.70;99.90;;;;;;4916895;29;19907;-82
2023/10/20 03:25:31;;;;;;;;;;;14.70;99.90;;;;;;4916954;29;19914;-82
2023/10/20 03:27:56;;;;;;;;;;;14.60;99.90;;;;;;4917095;29;19907;-77
2023/10/20 03:30:22;;;;;;;;;;;14.60;99.90;;;;;;4916970;29;19911;-77
2023/10/20 03:32:49;;;;;;;;;;;14.50;99.90;;;;;;4931446;29;19907;-77
2023/10/20 03:35:16;;;;;;;;;;;14.50;99.90;;;;;;4935918;29;19969;-81
2023/10/20 03:37:41;;;;;;;;;;;14.50;99.90;;;;;;4935825;29;19918;-77
2023/10/20 03:40:13;;;;;;;;;;;14.60;99.90;;;;;;4941307;29;19911;-81
2023/10/20 03:42:40;;;;;;;;;;;14.60;99.90;;;;;;4937577;29;19906;-76
2023/10/20 03:45:09;;;;;;;;;;;14.60;99.90;;;;;;4955185;29;19921;-76
2023/10/20 03:47:38;;;;;;;;;;;14.70;99.90;;;;;;4955095;29;19918;-81
2023/10/20 03:50:13;;;;;;;;;;;14.70;99.90;;;;;;4954951;29;19907;-80
2023/10/20 03:52:41;;;;;;;;;;;14.70;99.90;;;;;;4954759;29;19907;-80
2023/10/20 03:55:08;;;;;;;;;;;14.80;99.90;;;;;;4954206;29;19918;-74
2023/10/20 03:57:34;;;;;;;;;;;14.80;99.90;;;;;;4954485;29;20366;-74
2023/10/20 04:00:14;;;;;;;;;;;14.90;99.90;;;;;;4954063;29;19966;-80
2023/10/20 04:02:40;;;;;;;;;;;14.90;99.90;;;;;;4954742;29;19914;-79
2023/10/20 04:05:06;;;;;;;;;;;14.80;99.90;;;;;;4955061;29;19907;-79
2023/10/20 04:07:32;;;;;;;;;;;14.80;99.90;;;;;;4954487;29;19911;-75
2023/10/20 04:09:59;;;;;;;;;;;14.70;99.90;;;;;;4947305;29;20409;-79
2023/10/20 04:12:27;;;;;;;;;;;14.70;99.90;;;;;;4923686;29;19907;-75
2023/10/20 04:14:55;;;;;;;;;;;14.70;99.90;;;;;;4916756;29;19958;-79
2023/10/20 04:17:21;;;;;;;;;;;14.60;99.90;;;;;;4937427;29;20313;-75
2023/10/20 04:19:47;;;;;;;;;;;14.60;99.90;;;;;;4940446;29;19907;-79
2023/10/20 04:22:13;;;;;;;;;;;14.60;99.90;;;;;;4935258;29;20629;-79
2023/10/20 04:24:39;;;;;;;;;;;14.50;99.90;;;;;;4935624;29;20326;-79
2023/10/20 04:27:05;;;;;;;;;;;14.50;99.90;;;;;;4935668;29;19954;-79
2023/10/20 04:29:47;;;;;;;;;;;14.50;99.90;;;;;;4935484;29;19945;-79
2023/10/20 04:46:55;;;;;;;;;;;14.60;99.90;;;;;;4958365;29;19922;-82
2023/10/20 04:49:12;;;;;;;;;;;14.60;99.90;;;;;;4957855;29;19906;-78
2023/10/20 04:53:52;;;;;;;;;;;14.60;99.90;;;;;;4958387;29;19913;-76
2023/10/20 04:59:23;;;;;;;;;;;14.60;99.90;;;;;;4897694;29;19919;-75
2023/10/20 05:01:49;;;;;;;;;;;14.50;99.90;;;;;;4917442;29;20028;-74
2023/10/20 05:04:23;;;;;;;;;;;14.50;99.90;;;;;;4922412;29;19953;-79
2023/10/20 05:06:58;;;;;;;;;;;14.50;99.90;;;;;;4938647;29;20486;-75
2023/10/20 05:09:25;;;;;;;;;;;14.50;99.90;;;;;;4937789;29;20010;-79
2023/10/20 05:11:52;;;;;;;;;;;14.50;99.90;;;;;;4944712;29;19966;-74
2023/10/20 05:14:17;;;;;;;;;;;14.50;99.90;;;;;;4938455;29;19957;-76
2023/10/20 05:16:43;;;;;;;;;;;14.40;99.90;;;;;;4938309;29;20005;-78
2023/10/20 05:19:10;;;;;;;;;;;14.40;99.90;;;;;;4938373;29;19907;-77
2023/10/20 05:21:38;;;;;;;;;;;14.40;99.90;;;;;;4938553;29;20290;-78
2023/10/20 05:24:04;;;;;;;;;;;14.40;99.90;;;;;;4938211;29;19910;-80
2023/10/20 05:26:31;;;;;;;;;;;14.40;99.90;;;;;;4938394;29;19907;-77
2023/10/20 05:28:56;;;;;;;;;;;14.40;99.90;;;;;;4938194;29;20289;-78
2023/10/20 05:31:24;;;;;;;;;;;14.40;99.90;;;;;;4937970;29;19913;-81
2023/10/20 05:33:49;;;;;;;;;;;14.50;99.90;;;;;;4932622;29;19910;-82
2023/10/20 05:36:15;;;;;;;;;;;14.50;99.90;;;;;;4936962;29;20327;-77
2023/10/20 05:38:40;;;;;;;;;;;14.60;99.90;;;;;;4940272;29;19914;-78
2023/10/20 05:41:06;;;;;;;;;;;14.60;99.90;;;;;;4947632;29;20346;-79
2023/10/20 05:43:31;;;;;;;;;;;14.70;99.90;;;;;;4927146;29;19921;-79
2023/10/20 05:45:57;;;;;;;;;;;14.80;99.90;;;;;;4912915;29;19923;-79
2023/10/20 05:48:22;;;;;;;;;;;14.80;99.90;;;;;;4905070;29;19920;-80
2023/10/20 05:50:53;;;;;;;;;;;14.80;99.90;;;;;;4921562;29;19911;-76
2023/10/20 05:53:19;;;;;;;;;;;14.80;99.90;;;;;;4917524;29;20458;-79
2023/10/20 05:55:44;;;;;;;;;;;14.90;99.90;;;;;;4918321;29;19961;-81
2023/10/20 05:58:10;;;;;;;;;;;14.80;99.90;;;;;;4914912;29;19915;-81
2023/10/20 06:00:36;;;;;;;;;;;14.80;99.90;;;;;;4916730;29;19911;-81
2023/10/20 06:03:02;;;;;;;;;;;14.90;99.90;;;;;;4912031;29;20379;-76
2023/10/20 06:05:28;;;;;;;;;;;14.80;99.90;;;;;;4917914;29;19989;-80
2023/10/20 06:07:53;;;;;;;;;;;14.90;99.90;;;;;;4917650;29;19915;-77
2023/10/20 06:10:22;;;;;;;;;;;14.90;99.90;;;;;;4917830;29;19911;-79
2023/10/20 06:12:49;;;;;;;;;;;14.90;99.90;;;;;;4921564;29;19911;-80
2023/10/20 06:15:15;;;;;;;;;;;14.90;99.90;;;;;;4917540;29;19946;-79
2023/10/20 06:17:41;;;;;;;;;;;14.90;99.90;;;;;;4917320;29;19992;-77
2023/10/20 06:20:08;;;;;;;;;;;14.90;99.90;;;;;;4917491;29;19919;-80
2023/10/20 06:22:34;;;;;;;;;;;14.90;99.90;;;;;;4914934;29;20394;-77
2023/10/20 06:24:59;;;;;;;;;;;14.90;99.90;;;;;;4897829;29;20049;-79
2023/10/20 06:27:25;;;;;;;;;;;14.90;99.90;;;;;;4916030;29;19918;-80
2023/10/20 06:32:43;;;;;;;;;;;14.90;99.90;;;;;;4908479;29;19915;-76
2023/10/20 06:35:13;;;;;;;;;;;15.00;99.90;;;;;;4915496;29;19967;-79
2023/10/20 06:38:11;;;;;;;;;;;14.90;99.90;;;;;;4921755;29;19919;-79
2023/10/20 06:40:38;;;;;;;;;;;14.90;99.90;;;;;;4915107;29;19972;-78
2023/10/20 06:43:04;;;;;;;;;;;14.90;99.90;;;;;;4908612;29;20321;-75
2023/10/20 06:45:31;;;;;;;;;;;14.90;99.90;;;;;;4899579;29;20012;-76
2023/10/20 06:47:57;;;;;;;;;;;14.90;99.90;;;;;;4905558;29;19919;-76
2023/10/20 06:50:23;;;;;;;;;;;14.90;99.90;;;;;;4905644;29;19942;-78
2023/10/20 06:52:48;;;;;;;;;;;14.90;99.90;;;;;;4911806;29;19919;-78
2023/10/20 06:55:14;;;;;;;;;;;14.90;99.90;;;;;;4915567;29;20287;-75
2023/10/20 06:57:39;;;;;;;;;;;15.00;99.90;;;;;;4912474;29;19958;-75
2023/10/20 07:00:16;;;;;;;;;;;15.00;99.90;;;;;;4912083;29;19977;-79
2023/10/20 07:02:42;;;;;;;;;;;15.00;99.90;;;;;;4902906;29;20782;-79
2023/10/20 07:05:07;;;;;;;;;;;15.10;99.90;;;;;;4913107;29;19922;-75
2023/10/20 07:07:33;;;;;;;;;;;15.10;99.90;;;;;;4914444;29;20009;-75
2023/10/20 07:09:58;;;;;;;;;;;15.10;99.90;;;;;;4910297;29;19911;-76
2023/10/20 07:12:24;;;;;;;;;;;15.10;99.90;;;;;;4910706;29;19914;-75
2023/10/20 07:14:49;;;;;;;;;;;15.10;99.90;;;;;;4910289;29;19959;-75
2023/10/20 07:17:15;;;;;;;;;;;15.20;99.90;;;;;;4909818;29;19911;-78
2023/10/20 07:19:40;;;;;;;;;;;15.20;99.90;;;;;;4911829;29;20570;-75
2023/10/20 07:22:06;;;;;;;;;;;15.10;99.90;;;;;;4912628;29;19915;-75
2023/10/20 07:24:32;;;;;;;;;;;15.10;99.90;;;;;;4906298;29;19922;-76
2023/10/20 07:26:57;;;;;;;;;;;15.10;99.90;;;;;;4911787;29;19919;-77
2023/10/20 07:29:23;;;;;;;;;;;15.10;99.90;;;;;;4913397;29;19915;-77
2023/10/20 07:31:49;;;;;;;;;;;15.00;99.90;;;;;;4905316;29;19915;-81
2023/10/20 07:34:14;;;;;;;;;;;14.90;99.90;;;;;;4912978;29;20014;-82
2023/10/20 07:36:40;;;;;;;;;;;14.90;99.90;;;;;;4914396;29;19997;-76
2023/10/20 07:39:08;;;;;;;;;;;14.80;99.90;;;;;;4911014;29;19933;-76
2023/10/20 07:41:35;;;;;;;;;;;14.80;99.90;;;;;;4920305;29;20001;-77
2023/10/20 07:44:04;;;;;;;;;;;14.80;99.90;;;;;;4905394;29;19979;-83
2023/10/20 07:46:31;;;;;;;;;;;14.70;99.90;;;;;;4906688;29;20418;-83
2023/10/20 07:48:56;;;;;;;;;;;14.60;99.90;;;;;;4909106;29;19914;-82
2023/10/20 07:51:22;;;;;;;;;;;14.60;99.90;;;;;;4904047;29;20002;-77
2023/10/20 07:53:48;;;;;;;;;;;14.50;99.90;;;;;;4909894;29;20003;-80
2023/10/20 07:56:13;;;;;;;;;;;14.50;99.90;;;;;;4912611;29;20006;-76
2023/10/20 07:58:39;;;;;;;;;;;14.60;99.90;;;;;;4913041;29;19983;-79
2023/10/20 08:01:06;;;;;;;;;;;14.50;99.90;;;;;;4911140;29;19914;-80
2023/10/20 08:03:32;;;;;;;;;;;14.60;99.90;;;;;;4913031;29;19915;-77
2023/10/20 08:05:59;;;;;;;;;;;14.50;99.90;;;;;;4913439;29;19970;-76
2023/10/20 08:08:24;;;;;;;;;;;14.50;99.90;;;;;;4913468;29;20769;-80
2023/10/20 08:10:50;;;;;;;;;;;14.50;99.90;;;;;;4916449;29;19914;-79
2023/10/20 08:13:15;;;;;;;;;;;14.50;99.90;;;;;;4906320;29;19943;-77
2023/10/20 08:15:42;;;;;;;;;;;14.60;99.90;;;;;;4918372;29;20359;-77
2023/10/20 08:18:07;;;;;;;;;;;14.50;99.90;;;;;;4917077;29;19923;-77
2023/10/20 08:20:33;;;;;;;;;;;14.50;99.90;;;;;;4913333;29;19978;-81
2023/10/20 08:23:00;;;;;;;;;;;14.40;99.90;;;;;;4915741;29;20445;-81
2023/10/20 08:25:25;;;;;;;;;;;14.40;99.90;;;;;;4904403;29;19919;-81
2023/10/20 08:27:51;;;;;;;;;;;14.40;99.90;;;;;;4917675;29;19911;-77
2023/10/20 08:30:16;;;;;;;;;;;14.40;99.90;;;;;;4918106;29;20610;-78
2023/10/20 08:32:42;;;;;;;;;;;14.40;99.90;;;;;;4917039;29;19911;-82
2023/10/20 08:35:08;;;;;;;;;;;14.40;99.90;;;;;;4915908;29;19922;-82
2023/10/20 08:37:33;;;;;;;;;;;14.40;99.90;;;;;;4916577;29;20283;-82
2023/10/20 08:39:59;;;;;;;;;;;14.40;99.90;;;;;;4916049;29;19958;-78
2023/10/20 08:42:24;;;;;;;;;;;14.40;99.90;;;;;;4918414;29;20105;-78
2023/10/20 08:44:50;;;;;;;;;;;14.40;99.90;;;;;;4917674;29;19915;-81
2023/10/20 08:47:16;;;;;;;;;;;14.40;99.90;;;;;;4901597;29;19915;-82
2023/10/20 08:49:45;;;;;;;;;;;14.40;99.90;;;;;;4918710;29;19925;-81
2023/10/20 08:52:11;;;;;;;;;;;14.40;99.90;;;;;;4916623;29;19937;-81
2023/10/20 08:54:37;;;;;;;;;;;14.40;99.90;;;;;;4910727;29;19916;-77
2023/10/20 08:57:03;;;;;;;;;;;14.40;99.90;;;;;;4914589;29;19929;-77
2023/10/20 08:59:29;;;;;;;;;;;14.50;99.90;;;;;;4918185;29;19918;-81
2023/10/20 09:01:54;;;;;;;;;;;14.50;99.90;;;;;;4919122;29;19911;-82
2023/10/20 09:04:24;;;;;;;;;;;14.40;99.90;;;;;;4917765;29;20323;-81
2023/10/20 09:06:50;;;;;;;;;;;14.50;99.90;;;;;;4917727;29;19915;-77
2023/10/20 09:09:16;;;;;;;;;;;14.50;99.90;;;;;;4915641;29;19918;-76
2023/10/20 09:11:42;;;;;;;;;;;14.40;99.90;;;;;;4916999;29;19970;-81
2023/10/20 09:14:08;;;;;;;;;;;14.60;99.90;;;;;;4897651;29;19919;-76
2023/10/20 09:16:34;;;;;;;;;;;14.50;99.90;;;;;;4916860;29;19938;-76
2023/10/20 09:18:59;;;;;;;;;;;14.60;99.90;;;;;;4906758;29;19970;-76
2023/10/20 09:21:26;;;;;;;;;;;14.60;99.90;;;;;;4899540;29;19949;-76
2023/10/20 09:23:58;;;;;;;;;;;14.60;99.90;;;;;;4916994;29;19915;-81
2023/10/20 09:26:25;;;;;;;;;;;14.70;99.90;;;;;;4917334;29;19936;-81
2023/10/20 09:28:53;;;;;;;;;;;14.70;99.90;;;;;;4917784;29;19946;-76
2023/10/20 09:31:19;;;;;;;;;;;14.70;99.90;;;;;;4917486;29;19911;-76
2023/10/20 09:33:45;;;;;;;;;;;14.80;99.90;;;;;;4917396;29;20350;-76
2023/10/20 09:36:13;;;;;;;;;;;14.80;99.90;;;;;;4917199;29;19955;-76
2023/10/20 09:38:39;;;;;;;;;;;14.90;99.90;;;;;;4914641;29;19975;-80
2023/10/20 09:41:04;;;;;;;;;;;15.00;99.90;;;;;;4903063;29;19919;-82
2023/10/20 09:43:31;;;;;;;;;;;15.10;99.90;;;;;;4907924;29;19979;-76
2023/10/20 09:46:03;;;;;;;;;;;15.10;99.90;;;;;;4913681;29;19934;-77
2023/10/20 09:48:28;;;;;;;;;;;15.20;99.90;;;;;;4923340;29;19912;-77
2023/10/20 09:50:55;;;;;;;;;;;15.40;99.90;;;;;;4898904;29;19922;-79
2023/10/20 09:53:21;;;;;;;;;;;15.50;99.90;;;;;;4913120;29;20308;-81
2023/10/20 09:55:47;;;;;;;;;;;15.60;99.90;;;;;;4905996;29;19979;-82
2023/10/20 09:58:22;;;;;;;;;;;15.60;99.90;;;;;;4900853;29;19941;-81
2023/10/20 10:00:50;;;;;;;;;;;15.70;99.90;;;;;;4911675;29;20034;-76
2023/10/20 10:03:26;;;;;;;;;;;15.80;99.90;;;;;;4902299;29;19915;-81
2023/10/20 10:05:51;;;;;;;;;;;16.00;99.90;;;;;;4906909;29;19911;-81
2023/10/20 10:08:19;;;;;;;;;;;16.10;99.90;;;;;;4902524;29;19918;-81
2023/10/20 10:10:44;;;;;;;;;;;16.50;99.90;;;;;;4915511;29;20010;-76
2023/10/20 10:13:10;;;;;;;;;;;16.90;99.90;;;;;;4898553;29;19998;-76
2023/10/20 10:15:43;;;;;;;;;;;17.20;99.90;;;;;;4896946;29;20307;-81
2023/10/20 10:18:12;;;;;;;;;;;17.20;99.90;;;;;;4897892;29;20327;-76
2023/10/20 10:20:46;;;;;;;;;;;17.30;99.90;;;;;;4900653;29;19918;-81
2023/10/20 10:23:15;;;;;;;;;;;17.50;99.90;;;;;;4910044;29;20014;-81
2023/10/20 10:25:42;;;;;;;;;;;17.70;99.90;;;;;;4900788;29;20454;-76
2023/10/20 10:28:12;;;;;;;;;;;17.90;99.90;;;;;;4898764;29;19994;-76
2023/10/20 10:30:38;;;;;;;;;;;17.80;99.90;;;;;;4915112;29;19963;-81
2023/10/20 10:33:05;;;;;;;;;;;17.70;99.90;;;;;;4913084;29;19950;-81
2023/10/20 10:35:31;;;;;;;;;;;17.80;99.90;;;;;;4897488;29;20029;-76
2023/10/20 10:37:57;;;;;;;;;;;18.20;99.90;;;;;;4917428;29;20466;-76
2023/10/20 10:40:23;;;;;;;;;;;18.40;99.90;;;;;;4914505;29;20298;-76
2023/10/20 10:42:50;;;;;;;;;;;18.70;99.90;;;;;;4915697;29;20006;-81
2023/10/20 10:45:20;;;;;;;;;;;18.30;99.90;;;;;;4899460;29;20383;-81
2023/10/20 10:47:46;;;;;;;;;;;18.00;99.90;;;;;;4914500;29;19968;-80
2023/10/20 10:50:12;;;;;;;;;;;17.80;99.90;;;;;;4908153;29;20001;-76
2023/10/20 10:52:37;;;;;;;;;;;17.70;99.90;;;;;;4914955;29;20343;-76
2023/10/20 10:55:04;;;;;;;;;;;17.60;99.90;;;;;;4902842;29;19934;-81
2023/10/20 10:57:30;;;;;;;;;;;17.30;99.90;;;;;;4896124;29;20682;-75
2023/10/20 10:59:55;;;;;;;;;;;17.00;99.90;;;;;;4900168;29;19911;-79
2023/10/20 11:02:21;;;;;;;;;;;16.90;99.90;;;;;;4909917;29;19917;-80
2023/10/20 11:04:47;;;;;;;;;;;16.80;99.90;;;;;;4916980;29;19911;-75
2023/10/20 11:07:15;;;;;;;;;;;16.70;99.90;;;;;;4898008;29;19915;-75
2023/10/20 11:09:41;;;;;;;;;;;16.60;99.90;;;;;;4910715;29;19915;-79
2023/10/20 11:12:10;;;;;;;;;;;16.40;99.90;;;;;;4905326;29;19915;-80
2023/10/20 11:14:38;;;;;;;;;;;16.30;99.90;;;;;;4896021;29;19911;-80
2023/10/20 11:17:04;;;;;;;;;;;16.20;99.90;;;;;;4899951;29;20018;-75
2023/10/20 11:19:29;;;;;;;;;;;16.10;99.90;;;;;;4912632;29;19997;-76
2023/10/20 11:21:55;;;;;;;;;;;16.20;99.90;;;;;;4900414;29;19966;-79
2023/10/20 11:24:25;;;;;;;;;;;16.20;99.90;;;;;;4906976;29;19911;-81
2023/10/20 11:26:54;;;;;;;;;;;16.30;99.90;;;;;;4906843;29;19911;-81
2023/10/20 11:29:20;;;;;;;;;;;16.30;99.90;;;;;;4908743;29;20355;-77
2023/10/20 11:31:46;;;;;;;;;;;16.30;99.90;;;;;;4917331;29;19911;-76
2023/10/20 11:34:11;;;;;;;;;;;16.40;99.90;;;;;;4909097;29;20379;-81
2023/10/20 11:36:37;;;;;;;;;;;16.40;99.90;;;;;;4906970;29;19911;-76
2023/10/20 11:39:02;;;;;;;;;;;16.50;99.90;;;;;;4892554;29;19958;-80
2023/10/20 11:41:28;;;;;;;;;;;16.40;99.90;;;;;;4910924;29;19911;-77
2023/10/20 11:43:54;;;;;;;;;;;16.30;99.90;;;;;;4911262;29;19919;-77
2023/10/20 11:46:19;;;;;;;;;;;16.30;99.90;;;;;;4923898;29;19922;-76
2023/10/20 11:48:47;;;;;;;;;;;16.10;99.90;;;;;;4928313;29;19953;-77
2023/10/20 11:51:13;;;;;;;;;;;16.10;99.90;;;;;;4933651;29;19914;-76
2023/10/20 11:53:38;;;;;;;;;;;16.00;99.90;;;;;;4926671;29;20001;-81
2023/10/20 11:56:04;;;;;;;;;;;15.80;99.90;;;;;;4928463;29;19911;-76
2023/10/20 11:58:30;;;;;;;;;;;15.60;99.90;;;;;;4925206;29;19950;-76
2023/10/20 12:00:56;;;;;;;;;;;15.70;99.90;;;;;;4936294;29;19978;-76
2023/10/20 12:03:21;;;;;;;;;;;16.00;99.90;;;;;;4946160;29;20065;-80
2023/10/20 12:05:47;;;;;;;;;;;16.00;99.90;;;;;;4932855;29;19915;-76
2023/10/20 12:08:13;;;;;;;;;;;16.00;99.90;;;;;;4940119;29;20050;-76
2023/10/20 12:10:39;;;;;;;;;;;15.90;99.90;;;;;;4934452;29;20005;-75
2023/10/20 12:13:04;;;;;;;;;;;16.00;99.90;;;;;;4936959;29;20013;-80
2023/10/20 12:15:30;;;;;;;;;;;15.90;99.90;;;;;;4936553;29;20132;-79
2023/10/20 12:17:57;;;;;;;;;;;15.70;99.90;;;;;;4943011;29;19914;-80
2023/10/20 12:20:23;;;;;;;;;;;15.60;99.90;;;;;;4926523;29;19955;-75
2023/10/20 12:22:54;;;;;;;;;;;15.60;99.90;;;;;;4936153;29;19946;-75
2023/10/20 12:25:20;;;;;;;;;;;15.50;99.90;;;;;;4922472;29;19939;-75
2023/10/20 12:27:46;;;;;;;;;;;15.70;99.90;;;;;;4931125;29;19911;-81
2023/10/20 12:30:11;;;;;;;;;;;15.90;99.90;;;;;;4935641;29;20396;-75
2023/10/20 12:32:37;;;;;;;;;;;16.10;99.90;;;;;;4938775;29;20009;-80
2023/10/20 12:35:04;;;;;;;;;;;16.30;99.90;;;;;;4932142;29;20302;-75
2023/10/20 12:37:32;;;;;;;;;;;16.40;99.90;;;;;;4927041;29;19918;-75
2023/10/20 12:39:59;;;;;;;;;;;16.80;99.90;;;;;;4931849;29;20001;-80
2023/10/20 12:42:26;;;;;;;;;;;16.80;99.90;;;;;;4935850;29;19967;-75
2023/10/20 12:44:51;;;;;;;;;;;16.80;99.90;;;;;;4928928;29;19911;-79
2023/10/20 12:47:19;;;;;;;;;;;16.60;99.90;;;;;;4901766;29;19920;-75
2023/10/20 12:49:44;;;;;;;;;;;17.00;99.90;;;;;;4900634;29;19914;-75
2023/10/20 12:52:12;;;;;;;;;;;17.50;99.90;;;;;;4902575;29;19915;-80
2023/10/20 12:54:38;;;;;;;;;;;17.70;99.90;;;;;;4894624;29;19963;-75
2023/10/20 12:57:03;;;;;;;;;;;17.90;99.90;;;;;;4896683;29;19919;-80
2023/10/20 12:59:29;;;;;;;;;;;18.00;99.90;;;;;;4914155;29;19975;-74
2023/10/20 13:01:55;;;;;;;;;;;17.80;99.90;;;;;;4900321;29;19911;-75
2023/10/20 13:04:21;;;;;;;;;;;17.90;99.90;;;;;;4898858;29;19911;-75
2023/10/20 13:06:47;;;;;;;;;;;17.80;99.90;;;;;;4901195;29;19915;-79
2023/10/20 13:09:12;;;;;;;;;;;17.40;99.90;;;;;;4905544;29;19918;-74
2023/10/20 13:11:39;;;;;;;;;;;17.10;99.90;;;;;;4910897;29;19922;-79
2023/10/20 13:14:04;;;;;;;;;;;17.40;99.90;;;;;;4898047;29;19916;-74
2023/10/20 13:16:30;;;;;;;;;;;17.60;99.90;;;;;;4898216;29;20006;-74
2023/10/20 13:18:55;;;;;;;;;;;17.60;99.90;;;;;;4914969;29;20326;-74
2023/10/20 13:21:21;;;;;;;;;;;17.60;99.90;;;;;;4899349;29;19926;-79
2023/10/20 13:23:46;;;;;;;;;;;17.50;99.90;;;;;;4911261;29;19915;-79
2023/10/20 13:26:12;;;;;;;;;;;17.40;99.90;;;;;;4909519;29;20458;-74
2023/10/20 13:28:37;;;;;;;;;;;17.60;99.90;;;;;;4906096;29;19946;-74
2023/10/20 13:31:06;;;;;;;;;;;18.10;99.90;;;;;;4906001;29;19967;-80
2023/10/20 13:33:32;;;;;;;;;;;17.90;99.90;;;;;;4906390;29;20406;-79
2023/10/20 13:36:01;;;;;;;;;;;17.80;99.90;;;;;;4915712;29;19950;-79
2023/10/20 13:38:27;;;;;;;;;;;17.60;99.90;;;;;;4911142;29;19919;-74
2023/10/20 13:40:52;;;;;;;;;;;17.80;99.90;;;;;;4911465;29;19917;-75
2023/10/20 13:43:18;;;;;;;;;;;18.00;99.90;;;;;;4916127;29;20324;-75
2023/10/20 13:45:43;;;;;;;;;;;18.30;99.90;;;;;;4915735;29;19931;-80
2023/10/20 13:48:09;;;;;;;;;;;18.60;99.90;;;;;;4917292;29;20526;-80
2023/10/20 13:50:38;;;;;;;;;;;18.70;99.90;;;;;;4917039;29;19915;-74
2023/10/20 13:53:05;;;;;;;;;;;18.40;99.90;;;;;;4917372;29;19911;-75
2023/10/20 13:55:30;;;;;;;;;;;18.30;99.90;;;;;;4917378;29;19919;-79
2023/10/20 13:57:56;;;;;;;;;;;18.40;99.90;;;;;;4917817;29;20290;-79
2023/10/20 14:00:22;;;;;;;;;;;18.10;99.90;;;;;;4917054;29;19911;-80
2023/10/20 14:02:48;;;;;;;;;;;18.10;99.90;;;;;;4899293;29;20016;-79
2023/10/20 14:05:18;;;;;;;;;;;18.30;99.90;;;;;;4906088;29;20001;-79
2023/10/20 14:07:44;;;;;;;;;;;18.50;99.90;;;;;;4899416;29;20298;-74
2023/10/20 14:10:10;;;;;;;;;;;18.00;99.90;;;;;;4913285;29;19966;-79
2023/10/20 14:12:35;;;;;;;;;;;17.50;99.90;;;;;;4916481;29;19911;-79
2023/10/20 14:15:02;;;;;;;;;;;17.30;99.90;;;;;;4913621;29;19912;-79
2023/10/20 14:17:27;;;;;;;;;;;17.70;99.90;;;;;;4899101;29;20295;-79
2023/10/20 14:19:53;;;;;;;;;;;17.90;99.90;;;;;;4899416;29;19925;-74
2023/10/20 14:22:19;;;;;;;;;;;18.30;99.90;;;;;;4914236;29;19911;-74
2023/10/20 14:24:44;;;;;;;;;;;18.60;99.90;;;;;;4916515;29;19970;-74
2023/10/20 14:27:10;;;;;;;;;;;19.10;99.90;;;;;;4913425;29;20442;-80
2023/10/20 14:29:35;;;;;;;;;;;19.30;99.90;;;;;;4918115;29;19907;-79
2023/10/20 14:32:01;;;;;;;;;;;18.80;99.90;;;;;;4923994;29;19953;-74
2023/10/20 14:34:26;;;;;;;;;;;18.30;99.90;;;;;;4918555;29;19911;-80